sensor_id;sensor_type;location;lat;lon;timestamp;P1;durP1;ratioP1;P2;durP2;ratioP2
29466;SDS011;60968;37.490;-122.288;2023-07-24T00:00:27;4.57;;;2.00;;
29466;SDS011;60968;37.490;-122.288;2023-07-24T00:03:28;7.45;;;2.30;;
29466;SDS011;60968;37.490;-122.288;2023-07-24T00:06:30;9.85;;;2.58;;
29466;SDS011;60968;37.490;-122.288;2023-07-24T00:09:31;8.73;;;2.75;;
29466;SDS011;60968;37.490;-122.288;2023-07-24T00:12:31;9.80;;;2.90;;
29466;SDS011;60968;37.490;-122.288;2023-07-24T00:15:33;8.93;;;2.80;;
29466;SDS011;60968;37.490;-122.288;2023-07-24T00:18:33;6.27;;;2.40;;
29466;SDS011;60968;37.490;-122.288;2023-07-24T00:21:34;10.10;;;2.50;;
29466;SDS011;60968;37.490;-122.288;2023-07-24T00:24:35;9.23;;;2.50;;
29466;SDS011;60968;37.490;-122.288;2023-07-24T00:27:36;10.67;;;3.23;;
29466;SDS011;60968;37.490;-122.288;2023-07-24T00:30:37;12.07;;;3.57;;
29466;SDS011;60968;37.490;-122.288;2023-07-24T00:33:38;10.83;;;2.70;;
29466;SDS011;60968;37.490;-122.288;2023-07-24T00:36:38;9.83;;;3.33;;
29466;SDS011;60968;37.490;-122.288;2023-07-24T00:39:39;7.70;;;2.37;;
29466;SDS011;60968;37.490;-122.288;2023-07-24T00:42:40;12.97;;;3.50;;
29466;SDS011;60968;37.490;-122.288;2023-07-24T00:45:41;13.93;;;4.00;;
29466;SDS011;60968;37.490;-122.288;2023-07-24T00:48:42;11.87;;;3.60;;
29466;SDS011;60968;37.490;-122.288;2023-07-24T00:51:43;7.43;;;2.73;;
29466;SDS011;60968;37.490;-122.288;2023-07-24T00:54:45;11.50;;;3.30;;
29466;SDS011;60968;37.490;-122.288;2023-07-24T00:57:47;13.07;;;3.10;;
29466;SDS011;60968;37.490;-122.288;2023-07-24T01:00:48;12.37;;;3.23;;
29466;SDS011;60968;37.490;-122.288;2023-07-24T01:03:50;12.33;;;3.40;;
29466;SDS011;60968;37.490;-122.288;2023-07-24T01:06:52;13.07;;;3.20;;
29466;SDS011;60968;37.490;-122.288;2023-07-24T01:09:53;12.93;;;3.47;;
29466;SDS011;60968;37.490;-122.288;2023-07-24T01:13:10;13.37;;;3.40;;
29466;SDS011;60968;37.490;-122.288;2023-07-24T01:16:20;11.60;;;2.93;;
29466;SDS011;60968;37.490;-122.288;2023-07-24T01:26:06;10.77;;;3.33;;
29466;SDS011;60968;37.490;-122.288;2023-07-24T01:29:08;10.77;;;3.40;;
29466;SDS011;60968;37.490;-122.288;2023-07-24T01:32:08;12.67;;;3.40;;
29466;SDS011;60968;37.490;-122.288;2023-07-24T01:35:09;11.63;;;3.43;;
29466;SDS011;60968;37.490;-122.288;2023-07-24T01:38:11;14.07;;;3.17;;
29466;SDS011;60968;37.490;-122.288;2023-07-24T01:41:13;12.43;;;2.73;;
29466;SDS011;60968;37.490;-122.288;2023-07-24T01:44:14;12.33;;;3.07;;
29466;SDS011;60968;37.490;-122.288;2023-07-24T01:47:15;10.83;;;3.03;;
29466;SDS011;60968;37.490;-122.288;2023-07-24T01:50:16;13.87;;;3.87;;
29466;SDS011;60968;37.490;-122.288;2023-07-24T01:53:17;11.47;;;3.23;;
29466;SDS011;60968;37.490;-122.288;2023-07-24T01:56:18;12.13;;;3.03;;
29466;SDS011;60968;37.490;-122.288;2023-07-24T01:59:19;14.70;;;4.00;;
29466;SDS011;60968;37.490;-122.288;2023-07-24T02:02:19;13.73;;;3.33;;
29466;SDS011;60968;37.490;-122.288;2023-07-24T02:05:21;9.60;;;3.00;;
29466;SDS011;60968;37.490;-122.288;2023-07-24T02:08:22;11.27;;;3.33;;
29466;SDS011;60968;37.490;-122.288;2023-07-24T02:11:23;13.97;;;3.43;;
29466;SDS011;60968;37.490;-122.288;2023-07-24T02:14:23;10.83;;;3.10;;
29466;SDS011;60968;37.490;-122.288;2023-07-24T02:17:24;11.00;;;3.20;;
29466;SDS011;60968;37.490;-122.288;2023-07-24T02:20:25;11.57;;;3.03;;
29466;SDS011;60968;37.490;-122.288;2023-07-24T02:23:26;12.00;;;3.27;;
29466;SDS011;60968;37.490;-122.288;2023-07-24T02:26:27;16.00;;;3.63;;
29466;SDS011;60968;37.490;-122.288;2023-07-24T02:29:28;4.80;;;2.33;;
29466;SDS011;60968;37.490;-122.288;2023-07-24T02:32:28;15.00;;;3.73;;
29466;SDS011;60968;37.490;-122.288;2023-07-24T02:35:29;14.70;;;3.47;;
29466;SDS011;60968;37.490;-122.288;2023-07-24T02:38:30;12.40;;;2.90;;
29466;SDS011;60968;37.490;-122.288;2023-07-24T02:41:31;12.00;;;3.40;;
29466;SDS011;60968;37.490;-122.288;2023-07-24T02:44:33;9.03;;;3.73;;
29466;SDS011;60968;37.490;-122.288;2023-07-24T02:47:34;10.03;;;3.87;;
29466;SDS011;60968;37.490;-122.288;2023-07-24T02:50:35;13.27;;;3.87;;
29466;SDS011;60968;37.490;-122.288;2023-07-24T02:53:36;13.37;;;3.90;;
29466;SDS011;60968;37.490;-122.288;2023-07-24T02:56:37;19.07;;;5.53;;
29466;SDS011;60968;37.490;-122.288;2023-07-24T02:59:38;12.43;;;3.70;;
29466;SDS011;60968;37.490;-122.288;2023-07-24T03:02:39;12.20;;;4.47;;
29466;SDS011;60968;37.490;-122.288;2023-07-24T03:05:39;8.57;;;3.47;;
29466;SDS011;60968;37.490;-122.288;2023-07-24T03:08:40;10.40;;;4.07;;
29466;SDS011;60968;37.490;-122.288;2023-07-24T03:11:41;14.43;;;3.73;;
29466;SDS011;60968;37.490;-122.288;2023-07-24T03:14:42;8.70;;;3.27;;
29466;SDS011;60968;37.490;-122.288;2023-07-24T03:17:43;11.57;;;3.00;;
29466;SDS011;60968;37.490;-122.288;2023-07-24T03:20:43;10.40;;;3.60;;
29466;SDS011;60968;37.490;-122.288;2023-07-24T03:23:44;10.20;;;3.40;;
29466;SDS011;60968;37.490;-122.288;2023-07-24T03:26:45;11.83;;;3.13;;
29466;SDS011;60968;37.490;-122.288;2023-07-24T03:29:46;10.07;;;3.17;;
29466;SDS011;60968;37.490;-122.288;2023-07-24T03:32:47;11.00;;;3.30;;
29466;SDS011;60968;37.490;-122.288;2023-07-24T03:35:47;7.40;;;2.70;;
29466;SDS011;60968;37.490;-122.288;2023-07-24T03:38:48;8.20;;;3.33;;
29466;SDS011;60968;37.490;-122.288;2023-07-24T03:41:49;11.63;;;3.20;;
29466;SDS011;60968;37.490;-122.288;2023-07-24T03:44:50;7.93;;;2.60;;
29466;SDS011;60968;37.490;-122.288;2023-07-24T03:47:51;9.00;;;3.17;;
29466;SDS011;60968;37.490;-122.288;2023-07-24T03:50:57;7.70;;;2.90;;
29466;SDS011;60968;37.490;-122.288;2023-07-24T03:53:58;6.13;;;2.63;;
29466;SDS011;60968;37.490;-122.288;2023-07-24T03:56:59;8.07;;;3.03;;
29466;SDS011;60968;37.490;-122.288;2023-07-24T04:00:00;10.33;;;3.30;;
29466;SDS011;60968;37.490;-122.288;2023-07-24T04:03:02;10.10;;;3.40;;
29466;SDS011;60968;37.490;-122.288;2023-07-24T04:06:02;10.83;;;2.93;;
29466;SDS011;60968;37.490;-122.288;2023-07-24T04:09:03;12.50;;;3.57;;
29466;SDS011;60968;37.490;-122.288;2023-07-24T04:12:04;10.50;;;3.53;;
29466;SDS011;60968;37.490;-122.288;2023-07-24T04:15:05;8.67;;;3.17;;
29466;SDS011;60968;37.490;-122.288;2023-07-24T04:18:07;18.37;;;3.10;;
29466;SDS011;60968;37.490;-122.288;2023-07-24T04:21:08;8.40;;;3.00;;
29466;SDS011;60968;37.490;-122.288;2023-07-24T04:24:08;10.60;;;3.00;;
29466;SDS011;60968;37.490;-122.288;2023-07-24T04:27:09;9.83;;;2.90;;
29466;SDS011;60968;37.490;-122.288;2023-07-24T04:30:10;12.10;;;3.43;;
29466;SDS011;60968;37.490;-122.288;2023-07-24T04:33:11;9.57;;;2.70;;
29466;SDS011;60968;37.490;-122.288;2023-07-24T04:36:12;15.00;;;3.43;;
29466;SDS011;60968;37.490;-122.288;2023-07-24T04:39:13;10.03;;;3.60;;
29466;SDS011;60968;37.490;-122.288;2023-07-24T04:42:14;9.03;;;2.90;;
29466;SDS011;60968;37.490;-122.288;2023-07-24T04:45:16;9.70;;;3.30;;
29466;SDS011;60968;37.490;-122.288;2023-07-24T04:48:16;7.80;;;2.93;;
29466;SDS011;60968;37.490;-122.288;2023-07-24T04:51:17;8.73;;;2.90;;
29466;SDS011;60968;37.490;-122.288;2023-07-24T04:54:18;12.47;;;3.23;;
29466;SDS011;60968;37.490;-122.288;2023-07-24T04:57:19;7.80;;;2.83;;
29466;SDS011;60968;37.490;-122.288;2023-07-24T05:00:20;9.40;;;2.67;;
29466;SDS011;60968;37.490;-122.288;2023-07-24T05:03:21;6.53;;;2.27;;
29466;SDS011;60968;37.490;-122.288;2023-07-24T05:06:22;8.57;;;2.70;;
29466;SDS011;60968;37.490;-122.288;2023-07-24T05:09:22;10.70;;;3.30;;
29466;SDS011;60968;37.490;-122.288;2023-07-24T05:12:23;9.43;;;3.10;;
29466;SDS011;60968;37.490;-122.288;2023-07-24T05:15:24;12.90;;;3.47;;
29466;SDS011;60968;37.490;-122.288;2023-07-24T05:18:25;12.17;;;4.13;;
29466;SDS011;60968;37.490;-122.288;2023-07-24T05:21:26;7.90;;;2.87;;
29466;SDS011;60968;37.490;-122.288;2023-07-24T05:24:28;12.67;;;3.77;;
29466;SDS011;60968;37.490;-122.288;2023-07-24T05:27:29;10.63;;;3.30;;
29466;SDS011;60968;37.490;-122.288;2023-07-24T05:30:30;15.87;;;3.50;;
29466;SDS011;60968;37.490;-122.288;2023-07-24T05:33:31;13.47;;;4.03;;
29466;SDS011;60968;37.490;-122.288;2023-07-24T05:36:32;13.30;;;4.30;;
29466;SDS011;60968;37.490;-122.288;2023-07-24T05:39:33;15.93;;;3.90;;
29466;SDS011;60968;37.490;-122.288;2023-07-24T05:42:34;16.17;;;4.53;;
29466;SDS011;60968;37.490;-122.288;2023-07-24T05:45:35;16.33;;;4.73;;
29466;SDS011;60968;37.490;-122.288;2023-07-24T05:48:36;22.03;;;4.63;;
29466;SDS011;60968;37.490;-122.288;2023-07-24T05:51:37;25.13;;;5.63;;
29466;SDS011;60968;37.490;-122.288;2023-07-24T05:54:38;17.07;;;5.13;;
29466;SDS011;60968;37.490;-122.288;2023-07-24T05:57:39;14.33;;;4.67;;
29466;SDS011;60968;37.490;-122.288;2023-07-24T06:00:39;21.20;;;5.17;;
29466;SDS011;60968;37.490;-122.288;2023-07-24T06:03:42;24.27;;;5.40;;
29466;SDS011;60968;37.490;-122.288;2023-07-24T06:06:43;15.03;;;4.10;;
29466;SDS011;60968;37.490;-122.288;2023-07-24T06:09:44;15.97;;;4.30;;
29466;SDS011;60968;37.490;-122.288;2023-07-24T06:12:45;12.70;;;3.13;;
29466;SDS011;60968;37.490;-122.288;2023-07-24T06:15:49;13.57;;;3.83;;
29466;SDS011;60968;37.490;-122.288;2023-07-24T06:18:50;18.40;;;4.10;;
29466;SDS011;60968;37.490;-122.288;2023-07-24T06:21:51;14.70;;;3.50;;
29466;SDS011;60968;37.490;-122.288;2023-07-24T06:24:52;15.83;;;3.67;;
29466;SDS011;60968;37.490;-122.288;2023-07-24T06:27:54;12.43;;;3.30;;
29466;SDS011;60968;37.490;-122.288;2023-07-24T06:30:55;10.97;;;3.40;;
29466;SDS011;60968;37.490;-122.288;2023-07-24T06:33:56;12.20;;;3.40;;
29466;SDS011;60968;37.490;-122.288;2023-07-24T06:36:56;10.80;;;3.47;;
29466;SDS011;60968;37.490;-122.288;2023-07-24T06:39:57;12.83;;;3.70;;
29466;SDS011;60968;37.490;-122.288;2023-07-24T06:42:58;14.27;;;4.53;;
29466;SDS011;60968;37.490;-122.288;2023-07-24T06:45:59;16.13;;;3.67;;
29466;SDS011;60968;37.490;-122.288;2023-07-24T06:49:00;16.03;;;4.13;;
29466;SDS011;60968;37.490;-122.288;2023-07-24T06:52:01;12.80;;;4.03;;
29466;SDS011;60968;37.490;-122.288;2023-07-24T06:55:02;19.30;;;4.47;;
29466;SDS011;60968;37.490;-122.288;2023-07-24T06:58:04;15.90;;;4.00;;
29466;SDS011;60968;37.490;-122.288;2023-07-24T07:01:07;16.40;;;4.30;;
29466;SDS011;60968;37.490;-122.288;2023-07-24T07:04:08;15.40;;;4.43;;
29466;SDS011;60968;37.490;-122.288;2023-07-24T07:07:11;16.03;;;4.20;;
29466;SDS011;60968;37.490;-122.288;2023-07-24T07:10:12;17.10;;;4.07;;
29466;SDS011;60968;37.490;-122.288;2023-07-24T07:13:13;16.07;;;3.50;;
29466;SDS011;60968;37.490;-122.288;2023-07-24T07:16:14;13.90;;;4.43;;
29466;SDS011;60968;37.490;-122.288;2023-07-24T07:19:15;19.33;;;3.87;;
29466;SDS011;60968;37.490;-122.288;2023-07-24T07:22:18;17.03;;;4.20;;
29466;SDS011;60968;37.490;-122.288;2023-07-24T07:25:19;22.20;;;4.20;;
29466;SDS011;60968;37.490;-122.288;2023-07-24T07:28:19;15.70;;;4.37;;
29466;SDS011;60968;37.490;-122.288;2023-07-24T07:31:20;16.50;;;4.50;;
29466;SDS011;60968;37.490;-122.288;2023-07-24T07:34:21;15.93;;;4.60;;
29466;SDS011;60968;37.490;-122.288;2023-07-24T07:37:22;16.67;;;4.40;;
29466;SDS011;60968;37.490;-122.288;2023-07-24T07:40:23;17.50;;;4.43;;
29466;SDS011;60968;37.490;-122.288;2023-07-24T07:43:25;14.17;;;4.23;;
29466;SDS011;60968;37.490;-122.288;2023-07-24T07:46:26;14.17;;;4.07;;
29466;SDS011;60968;37.490;-122.288;2023-07-24T07:49:27;18.17;;;4.57;;
29466;SDS011;60968;37.490;-122.288;2023-07-24T07:52:28;19.10;;;4.90;;
29466;SDS011;60968;37.490;-122.288;2023-07-24T07:55:28;19.87;;;5.00;;
29466;SDS011;60968;37.490;-122.288;2023-07-24T07:58:29;16.00;;;5.23;;
29466;SDS011;60968;37.490;-122.288;2023-07-24T08:01:32;19.60;;;5.07;;
29466;SDS011;60968;37.490;-122.288;2023-07-24T08:04:33;18.07;;;4.70;;
29466;SDS011;60968;37.490;-122.288;2023-07-24T08:07:34;19.57;;;5.13;;
29466;SDS011;60968;37.490;-122.288;2023-07-24T08:10:37;25.20;;;6.23;;
29466;SDS011;60968;37.490;-122.288;2023-07-24T08:13:38;20.83;;;6.27;;
29466;SDS011;60968;37.490;-122.288;2023-07-24T08:16:39;25.53;;;6.63;;
29466;SDS011;60968;37.490;-122.288;2023-07-24T08:19:40;31.23;;;6.20;;
29466;SDS011;60968;37.490;-122.288;2023-07-24T08:22:40;22.57;;;5.23;;
29466;SDS011;60968;37.490;-122.288;2023-07-24T08:25:50;23.30;;;6.07;;
29466;SDS011;60968;37.490;-122.288;2023-07-24T08:28:52;25.97;;;7.03;;
29466;SDS011;60968;37.490;-122.288;2023-07-24T08:31:53;23.10;;;6.07;;
29466;SDS011;60968;37.490;-122.288;2023-07-24T08:34:54;25.33;;;6.23;;
29466;SDS011;60968;37.490;-122.288;2023-07-24T08:37:55;31.80;;;5.93;;
29466;SDS011;60968;37.490;-122.288;2023-07-24T08:41:06;22.70;;;5.97;;
29466;SDS011;60968;37.490;-122.288;2023-07-24T08:44:09;24.67;;;6.57;;
29466;SDS011;60968;37.490;-122.288;2023-07-24T08:47:11;27.60;;;6.17;;
29466;SDS011;60968;37.490;-122.288;2023-07-24T08:50:13;25.73;;;5.80;;
29466;SDS011;60968;37.490;-122.288;2023-07-24T08:53:15;29.73;;;7.00;;
29466;SDS011;60968;37.490;-122.288;2023-07-24T08:56:16;30.23;;;7.47;;
29466;SDS011;60968;37.490;-122.288;2023-07-24T08:59:17;26.67;;;6.50;;
29466;SDS011;60968;37.490;-122.288;2023-07-24T09:02:18;21.83;;;6.53;;
29466;SDS011;60968;37.490;-122.288;2023-07-24T09:05:19;25.83;;;6.50;;
29466;SDS011;60968;37.490;-122.288;2023-07-24T09:08:30;21.43;;;6.60;;
29466;SDS011;60968;37.490;-122.288;2023-07-24T09:11:32;27.00;;;5.93;;
29466;SDS011;60968;37.490;-122.288;2023-07-24T09:14:33;23.90;;;6.73;;
29466;SDS011;60968;37.490;-122.288;2023-07-24T09:17:34;26.23;;;6.00;;
29466;SDS011;60968;37.490;-122.288;2023-07-24T09:20:38;21.73;;;6.83;;
29466;SDS011;60968;37.490;-122.288;2023-07-24T09:23:40;30.97;;;6.60;;
29466;SDS011;60968;37.490;-122.288;2023-07-24T09:26:50;29.53;;;6.93;;
29466;SDS011;60968;37.490;-122.288;2023-07-24T09:29:52;36.47;;;6.40;;
29466;SDS011;60968;37.490;-122.288;2023-07-24T09:32:53;23.23;;;6.23;;
29466;SDS011;60968;37.490;-122.288;2023-07-24T09:36:00;31.20;;;7.03;;
29466;SDS011;60968;37.490;-122.288;2023-07-24T09:39:02;28.10;;;6.07;;
29466;SDS011;60968;37.490;-122.288;2023-07-24T09:42:03;29.60;;;5.83;;
29466;SDS011;60968;37.490;-122.288;2023-07-24T09:45:05;27.00;;;6.50;;
29466;SDS011;60968;37.490;-122.288;2023-07-24T09:48:07;19.30;;;5.60;;
29466;SDS011;60968;37.490;-122.288;2023-07-24T09:51:10;26.60;;;6.03;;
29466;SDS011;60968;37.490;-122.288;2023-07-24T09:54:22;21.53;;;5.63;;
29466;SDS011;60968;37.490;-122.288;2023-07-24T09:57:28;17.87;;;5.27;;
29466;SDS011;60968;37.490;-122.288;2023-07-24T10:00:30;15.50;;;5.30;;
29466;SDS011;60968;37.490;-122.288;2023-07-24T10:03:38;17.90;;;4.77;;
29466;SDS011;60968;37.490;-122.288;2023-07-24T10:06:41;18.53;;;4.97;;
29466;SDS011;60968;37.490;-122.288;2023-07-24T10:09:44;23.60;;;5.53;;
29466;SDS011;60968;37.490;-122.288;2023-07-24T10:12:45;24.03;;;5.60;;
29466;SDS011;60968;37.490;-122.288;2023-07-24T10:15:47;19.20;;;5.20;;
29466;SDS011;60968;37.490;-122.288;2023-07-24T10:18:48;23.20;;;5.93;;
29466;SDS011;60968;37.490;-122.288;2023-07-24T10:21:51;26.33;;;6.73;;
29466;SDS011;60968;37.490;-122.288;2023-07-24T10:24:54;24.57;;;6.10;;
29466;SDS011;60968;37.490;-122.288;2023-07-24T10:27:55;25.13;;;5.43;;
29466;SDS011;60968;37.490;-122.288;2023-07-24T10:31:01;29.97;;;6.00;;
29466;SDS011;60968;37.490;-122.288;2023-07-24T10:34:05;22.37;;;5.83;;
29466;SDS011;60968;37.490;-122.288;2023-07-24T10:37:07;19.67;;;5.83;;
29466;SDS011;60968;37.490;-122.288;2023-07-24T10:40:18;25.13;;;6.47;;
29466;SDS011;60968;37.490;-122.288;2023-07-24T10:43:22;21.90;;;5.53;;
29466;SDS011;60968;37.490;-122.288;2023-07-24T10:46:22;21.80;;;6.47;;
29466;SDS011;60968;37.490;-122.288;2023-07-24T10:49:23;27.10;;;7.03;;
29466;SDS011;60968;37.490;-122.288;2023-07-24T10:52:27;28.87;;;6.90;;
29466;SDS011;60968;37.490;-122.288;2023-07-24T10:55:31;32.47;;;6.87;;
29466;SDS011;60968;37.490;-122.288;2023-07-24T10:58:32;35.97;;;7.07;;
29466;SDS011;60968;37.490;-122.288;2023-07-24T11:01:33;24.27;;;6.67;;
29466;SDS011;60968;37.490;-122.288;2023-07-24T11:04:34;31.07;;;6.40;;
29466;SDS011;60968;37.490;-122.288;2023-07-24T11:07:35;25.67;;;6.90;;
29466;SDS011;60968;37.490;-122.288;2023-07-24T11:10:36;27.93;;;7.37;;
29466;SDS011;60968;37.490;-122.288;2023-07-24T11:13:37;23.17;;;7.10;;
29466;SDS011;60968;37.490;-122.288;2023-07-24T11:16:47;26.70;;;6.77;;
29466;SDS011;60968;37.490;-122.288;2023-07-24T11:19:51;29.90;;;6.30;;
29466;SDS011;60968;37.490;-122.288;2023-07-24T11:22:52;23.20;;;6.70;;
29466;SDS011;60968;37.490;-122.288;2023-07-24T11:25:53;36.73;;;7.37;;
29466;SDS011;60968;37.490;-122.288;2023-07-24T11:28:56;31.13;;;6.67;;
29466;SDS011;60968;37.490;-122.288;2023-07-24T11:31:57;27.90;;;6.73;;
29466;SDS011;60968;37.490;-122.288;2023-07-24T11:34:57;31.40;;;7.23;;
29466;SDS011;60968;37.490;-122.288;2023-07-24T11:38:00;36.13;;;7.43;;
29466;SDS011;60968;37.490;-122.288;2023-07-24T11:41:01;31.73;;;8.00;;
29466;SDS011;60968;37.490;-122.288;2023-07-24T11:44:02;25.63;;;6.23;;
29466;SDS011;60968;37.490;-122.288;2023-07-24T11:47:04;28.73;;;7.00;;
29466;SDS011;60968;37.490;-122.288;2023-07-24T11:50:06;32.73;;;7.10;;
29466;SDS011;60968;37.490;-122.288;2023-07-24T11:53:20;30.57;;;7.43;;
29466;SDS011;60968;37.490;-122.288;2023-07-24T11:56:23;24.13;;;6.43;;
29466;SDS011;60968;37.490;-122.288;2023-07-24T11:59:24;34.50;;;7.67;;
29466;SDS011;60968;37.490;-122.288;2023-07-24T12:02:27;25.03;;;6.47;;
29466;SDS011;60968;37.490;-122.288;2023-07-24T12:05:28;22.73;;;7.20;;
29466;SDS011;60968;37.490;-122.288;2023-07-24T12:08:33;27.50;;;6.67;;
29466;SDS011;60968;37.490;-122.288;2023-07-24T12:11:38;26.23;;;6.63;;
29466;SDS011;60968;37.490;-122.288;2023-07-24T12:14:40;27.10;;;6.73;;
29466;SDS011;60968;37.490;-122.288;2023-07-24T12:17:41;30.60;;;7.13;;
29466;SDS011;60968;37.490;-122.288;2023-07-24T12:20:42;22.30;;;6.20;;
29466;SDS011;60968;37.490;-122.288;2023-07-24T12:23:43;30.17;;;7.07;;
29466;SDS011;60968;37.490;-122.288;2023-07-24T12:26:44;27.90;;;6.37;;
29466;SDS011;60968;37.490;-122.288;2023-07-24T12:29:46;32.83;;;7.07;;
29466;SDS011;60968;37.490;-122.288;2023-07-24T12:32:51;29.67;;;6.90;;
29466;SDS011;60968;37.490;-122.288;2023-07-24T12:35:51;27.03;;;6.30;;
29466;SDS011;60968;37.490;-122.288;2023-07-24T12:38:52;22.87;;;5.93;;
29466;SDS011;60968;37.490;-122.288;2023-07-24T12:41:54;26.10;;;7.20;;
29466;SDS011;60968;37.490;-122.288;2023-07-24T12:44:55;27.90;;;7.80;;
29466;SDS011;60968;37.490;-122.288;2023-07-24T12:47:55;25.93;;;6.70;;
29466;SDS011;60968;37.490;-122.288;2023-07-24T12:50:56;25.73;;;7.00;;
29466;SDS011;60968;37.490;-122.288;2023-07-24T12:53:57;29.50;;;6.77;;
29466;SDS011;60968;37.490;-122.288;2023-07-24T12:56:58;24.73;;;7.03;;
29466;SDS011;60968;37.490;-122.288;2023-07-24T12:59:59;32.60;;;6.60;;
29466;SDS011;60968;37.490;-122.288;2023-07-24T13:02:59;27.10;;;8.00;;
29466;SDS011;60968;37.490;-122.288;2023-07-24T13:06:01;30.37;;;7.00;;
29466;SDS011;60968;37.490;-122.288;2023-07-24T13:09:02;23.90;;;6.70;;
29466;SDS011;60968;37.490;-122.288;2023-07-24T13:12:04;28.27;;;6.00;;
29466;SDS011;60968;37.490;-122.288;2023-07-24T13:15:05;34.80;;;7.53;;
29466;SDS011;60968;37.490;-122.288;2023-07-24T13:18:06;26.57;;;6.93;;
29466;SDS011;60968;37.490;-122.288;2023-07-24T13:21:07;27.17;;;7.37;;
29466;SDS011;60968;37.490;-122.288;2023-07-24T13:24:09;25.30;;;6.90;;
29466;SDS011;60968;37.490;-122.288;2023-07-24T13:27:10;41.00;;;8.57;;
29466;SDS011;60968;37.490;-122.288;2023-07-24T13:30:10;31.23;;;6.93;;
29466;SDS011;60968;37.490;-122.288;2023-07-24T13:33:12;32.40;;;6.70;;
29466;SDS011;60968;37.490;-122.288;2023-07-24T13:36:12;24.80;;;6.37;;
29466;SDS011;60968;37.490;-122.288;2023-07-24T13:39:13;26.10;;;6.47;;
29466;SDS011;60968;37.490;-122.288;2023-07-24T13:42:14;27.27;;;6.87;;
29466;SDS011;60968;37.490;-122.288;2023-07-24T13:45:15;22.53;;;6.80;;
29466;SDS011;60968;37.490;-122.288;2023-07-24T13:48:16;29.10;;;6.63;;
29466;SDS011;60968;37.490;-122.288;2023-07-24T13:51:17;22.93;;;6.20;;
29466;SDS011;60968;37.490;-122.288;2023-07-24T13:54:18;23.47;;;6.70;;
29466;SDS011;60968;37.490;-122.288;2023-07-24T13:57:18;25.03;;;6.50;;
29466;SDS011;60968;37.490;-122.288;2023-07-24T14:00:19;27.30;;;6.63;;
29466;SDS011;60968;37.490;-122.288;2023-07-24T14:03:20;31.97;;;7.53;;
29466;SDS011;60968;37.490;-122.288;2023-07-24T14:06:22;29.43;;;6.93;;
29466;SDS011;60968;37.490;-122.288;2023-07-24T14:09:23;26.77;;;7.30;;
29466;SDS011;60968;37.490;-122.288;2023-07-24T14:12:23;28.37;;;7.17;;
29466;SDS011;60968;37.490;-122.288;2023-07-24T14:15:25;33.67;;;7.67;;
29466;SDS011;60968;37.490;-122.288;2023-07-24T14:18:25;25.27;;;6.80;;
29466;SDS011;60968;37.490;-122.288;2023-07-24T14:21:26;28.13;;;6.77;;
29466;SDS011;60968;37.490;-122.288;2023-07-24T14:24:27;28.90;;;7.13;;
29466;SDS011;60968;37.490;-122.288;2023-07-24T14:27:28;25.67;;;6.27;;
29466;SDS011;60968;37.490;-122.288;2023-07-24T14:30:29;22.00;;;5.67;;
29466;SDS011;60968;37.490;-122.288;2023-07-24T14:33:30;19.33;;;5.83;;
29466;SDS011;60968;37.490;-122.288;2023-07-24T14:36:30;18.87;;;5.33;;
29466;SDS011;60968;37.490;-122.288;2023-07-24T14:39:31;21.80;;;4.83;;
29466;SDS011;60968;37.490;-122.288;2023-07-24T14:42:32;15.53;;;4.80;;
29466;SDS011;60968;37.490;-122.288;2023-07-24T14:45:33;21.20;;;6.07;;
29466;SDS011;60968;37.490;-122.288;2023-07-24T14:48:34;15.80;;;4.43;;
29466;SDS011;60968;37.490;-122.288;2023-07-24T14:51:34;14.77;;;4.60;;
29466;SDS011;60968;37.490;-122.288;2023-07-24T14:54:35;16.83;;;3.93;;
29466;SDS011;60968;37.490;-122.288;2023-07-24T14:57:36;12.43;;;3.57;;
29466;SDS011;60968;37.490;-122.288;2023-07-24T15:00:37;7.50;;;2.40;;
29466;SDS011;60968;37.490;-122.288;2023-07-24T15:03:38;6.93;;;2.00;;
29466;SDS011;60968;37.490;-122.288;2023-07-24T15:06:39;4.23;;;1.90;;
29466;SDS011;60968;37.490;-122.288;2023-07-24T15:09:40;5.20;;;1.83;;
29466;SDS011;60968;37.490;-122.288;2023-07-24T15:12:42;9.47;;;2.83;;
29466;SDS011;60968;37.490;-122.288;2023-07-24T15:15:43;14.37;;;3.40;;
29466;SDS011;60968;37.490;-122.288;2023-07-24T15:18:44;16.30;;;3.60;;
29466;SDS011;60968;37.490;-122.288;2023-07-24T15:21:45;20.77;;;4.87;;
29466;SDS011;60968;37.490;-122.288;2023-07-24T15:24:45;16.67;;;3.97;;
29466;SDS011;60968;37.490;-122.288;2023-07-24T15:27:46;13.97;;;3.73;;
29466;SDS011;60968;37.490;-122.288;2023-07-24T15:30:48;14.70;;;2.97;;
29466;SDS011;60968;37.490;-122.288;2023-07-24T15:33:49;14.57;;;4.20;;
29466;SDS011;60968;37.490;-122.288;2023-07-24T15:36:50;14.00;;;3.40;;
29466;SDS011;60968;37.490;-122.288;2023-07-24T15:39:51;19.80;;;3.80;;
29466;SDS011;60968;37.490;-122.288;2023-07-24T15:42:52;15.10;;;4.07;;
29466;SDS011;60968;37.490;-122.288;2023-07-24T15:45:53;7.97;;;3.27;;
29466;SDS011;60968;37.490;-122.288;2023-07-24T15:48:54;17.27;;;4.03;;
29466;SDS011;60968;37.490;-122.288;2023-07-24T15:51:55;9.07;;;3.60;;
29466;SDS011;60968;37.490;-122.288;2023-07-24T15:54:56;11.77;;;3.57;;
29466;SDS011;60968;37.490;-122.288;2023-07-24T15:57:57;10.43;;;4.50;;
29466;SDS011;60968;37.490;-122.288;2023-07-24T16:00:58;15.37;;;4.93;;
29466;SDS011;60968;37.490;-122.288;2023-07-24T16:03:59;10.97;;;3.73;;
29466;SDS011;60968;37.490;-122.288;2023-07-24T16:06:59;18.43;;;4.50;;
29466;SDS011;60968;37.490;-122.288;2023-07-24T16:10:00;12.83;;;3.60;;
29466;SDS011;60968;37.490;-122.288;2023-07-24T16:13:01;12.97;;;3.67;;
29466;SDS011;60968;37.490;-122.288;2023-07-24T16:16:02;16.93;;;4.33;;
29466;SDS011;60968;37.490;-122.288;2023-07-24T16:19:10;10.27;;;3.50;;
29466;SDS011;60968;37.490;-122.288;2023-07-24T16:22:11;13.67;;;3.37;;
29466;SDS011;60968;37.490;-122.288;2023-07-24T16:25:12;6.30;;;2.33;;
29466;SDS011;60968;37.490;-122.288;2023-07-24T16:28:13;11.10;;;2.93;;
29466;SDS011;60968;37.490;-122.288;2023-07-24T16:31:14;9.17;;;2.80;;
29466;SDS011;60968;37.490;-122.288;2023-07-24T16:34:15;10.27;;;3.83;;
29466;SDS011;60968;37.490;-122.288;2023-07-24T16:37:15;13.27;;;3.80;;
29466;SDS011;60968;37.490;-122.288;2023-07-24T16:40:16;11.47;;;3.73;;
29466;SDS011;60968;37.490;-122.288;2023-07-24T16:43:17;10.83;;;3.20;;
29466;SDS011;60968;37.490;-122.288;2023-07-24T16:46:18;12.67;;;3.70;;
29466;SDS011;60968;37.490;-122.288;2023-07-24T16:49:19;10.80;;;3.93;;
29466;SDS011;60968;37.490;-122.288;2023-07-24T16:52:20;12.83;;;3.63;;
29466;SDS011;60968;37.490;-122.288;2023-07-24T16:55:20;12.33;;;3.67;;
29466;SDS011;60968;37.490;-122.288;2023-07-24T16:58:21;15.57;;;4.47;;
29466;SDS011;60968;37.490;-122.288;2023-07-24T17:01:22;8.13;;;2.80;;
29466;SDS011;60968;37.490;-122.288;2023-07-24T17:04:24;10.57;;;2.87;;
29466;SDS011;60968;37.490;-122.288;2023-07-24T17:07:24;13.50;;;3.00;;
29466;SDS011;60968;37.490;-122.288;2023-07-24T17:10:26;9.10;;;3.47;;
29466;SDS011;60968;37.490;-122.288;2023-07-24T17:13:40;7.90;;;2.70;;
29466;SDS011;60968;37.490;-122.288;2023-07-24T17:16:41;4.93;;;2.60;;
29466;SDS011;60968;37.490;-122.288;2023-07-24T17:19:42;4.88;;;1.65;;